sensor_id;sensor_type;location;lat;lon;timestamp;temperature;humidity
74537;SHT31;63013;51.104;-115.370;2023-07-13T00:01:53;20.67;51.90
74537;SHT31;63013;51.104;-115.370;2023-07-13T00:04:21;20.68;51.96
74537;SHT31;63013;51.104;-115.370;2023-07-13T00:06:51;20.69;51.94
74537;SHT31;63013;51.104;-115.370;2023-07-13T00:09:19;20.70;51.95
74537;SHT31;63013;51.104;-115.370;2023-07-13T00:11:50;20.71;51.97
74537;SHT31;63013;51.104;-115.370;2023-07-13T00:14:21;20.72;51.95
74537;SHT31;63013;51.104;-115.370;2023-07-13T00:16:50;20.72;51.92
74537;SHT31;63013;51.104;-115.370;2023-07-13T00:19:17;20.73;51.89
74537;SHT31;63013;51.104;-115.370;2023-07-13T00:21:45;20.74;51.88
74537;SHT31;63013;51.104;-115.370;2023-07-13T00:24:13;20.74;51.86
74537;SHT31;63013;51.104;-115.370;2023-07-13T00:26:47;20.75;51.92
74537;SHT31;63013;51.104;-115.370;2023-07-13T00:29:14;20.76;52.16
74537;SHT31;63013;51.104;-115.370;2023-07-13T00:31:41;20.76;52.37
74537;SHT31;63013;51.104;-115.370;2023-07-13T00:34:10;20.78;52.24
74537;SHT31;63013;51.104;-115.370;2023-07-13T00:36:37;20.78;52.05
74537;SHT31;63013;51.104;-115.370;2023-07-13T00:39:04;20.77;51.91
74537;SHT31;63013;51.104;-115.370;2023-07-13T00:41:31;20.80;51.82
74537;SHT31;63013;51.104;-115.370;2023-07-13T00:43:58;20.80;51.78
74537;SHT31;63013;51.104;-115.370;2023-07-13T00:46:28;20.81;51.71
74537;SHT31;63013;51.104;-115.370;2023-07-13T00:49:04;20.81;51.70
74537;SHT31;63013;51.104;-115.370;2023-07-13T00:51:39;20.83;51.70
74537;SHT31;63013;51.104;-115.370;2023-07-13T00:54:13;20.83;51.69
74537;SHT31;63013;51.104;-115.370;2023-07-13T00:56:45;20.83;51.68
74537;SHT31;63013;51.104;-115.370;2023-07-13T00:59:16;20.84;51.69
74537;SHT31;63013;51.104;-115.370;2023-07-13T01:01:47;20.85;51.67
74537;SHT31;63013;51.104;-115.370;2023-07-13T01:04:14;20.85;51.70
74537;SHT31;63013;51.104;-115.370;2023-07-13T01:06:43;20.85;51.67
74537;SHT31;63013;51.104;-115.370;2023-07-13T01:09:12;20.86;51.71
74537;SHT31;63013;51.104;-115.370;2023-07-13T01:11:41;20.87;51.74
74537;SHT31;63013;51.104;-115.370;2023-07-13T01:14:10;20.88;51.73
74537;SHT31;63013;51.104;-115.370;2023-07-13T01:16:37;20.88;51.71
74537;SHT31;63013;51.104;-115.370;2023-07-13T01:22:09;20.90;51.61
74537;SHT31;63013;51.104;-115.370;2023-07-13T01:24:41;20.90;51.59
74537;SHT31;63013;51.104;-115.370;2023-07-13T01:27:13;20.90;51.61
74537;SHT31;63013;51.104;-115.370;2023-07-13T01:29:44;20.92;51.75
74537;SHT31;63013;51.104;-115.370;2023-07-13T01:32:14;20.92;51.63
74537;SHT31;63013;51.104;-115.370;2023-07-13T01:34:50;20.93;51.59
74537;SHT31;63013;51.104;-115.370;2023-07-13T01:37:19;20.93;51.51
74537;SHT31;63013;51.104;-115.370;2023-07-13T01:39:49;20.94;51.57
74537;SHT31;63013;51.104;-115.370;2023-07-13T01:42:16;20.95;51.51
74537;SHT31;63013;51.104;-115.370;2023-07-13T01:44:43;20.96;51.50
74537;SHT31;63013;51.104;-115.370;2023-07-13T01:47:10;20.97;51.49
74537;SHT31;63013;51.104;-115.370;2023-07-13T01:49:37;20.97;51.47
74537;SHT31;63013;51.104;-115.370;2023-07-13T01:52:04;20.98;51.40
74537;SHT31;63013;51.104;-115.370;2023-07-13T01:54:31;20.98;51.40
74537;SHT31;63013;51.104;-115.370;2023-07-13T01:56:59;20.99;51.38
74537;SHT31;63013;51.104;-115.370;2023-07-13T01:59:26;20.99;51.40
74537;SHT31;63013;51.104;-115.370;2023-07-13T02:01:53;21.00;51.40
74537;SHT31;63013;51.104;-115.370;2023-07-13T02:04:20;21.00;51.44
74537;SHT31;63013;51.104;-115.370;2023-07-13T02:06:47;21.01;51.62
74537;SHT31;63013;51.104;-115.370;2023-07-13T02:09:14;21.00;51.72
74537;SHT31;63013;51.104;-115.370;2023-07-13T02:11:41;21.01;51.79
74537;SHT31;63013;51.104;-115.370;2023-07-13T02:14:08;21.01;51.87
74537;SHT31;63013;51.104;-115.370;2023-07-13T02:16:35;21.02;51.89
74537;SHT31;63013;51.104;-115.370;2023-07-13T02:19:02;21.02;51.80
74537;SHT31;63013;51.104;-115.370;2023-07-13T02:21:29;21.01;51.80
74537;SHT31;63013;51.104;-115.370;2023-07-13T02:23:56;21.02;51.87
74537;SHT31;63013;51.104;-115.370;2023-07-13T02:26:23;21.03;51.90
74537;SHT31;63013;51.104;-115.370;2023-07-13T02:28:50;21.03;52.01
74537;SHT31;63013;51.104;-115.370;2023-07-13T02:31:17;21.03;52.13
74537;SHT31;63013;51.104;-115.370;2023-07-13T02:33:45;21.04;52.25
74537;SHT31;63013;51.104;-115.370;2023-07-13T02:36:12;21.04;52.30
74537;SHT31;63013;51.104;-115.370;2023-07-13T02:38:42;21.05;52.35
74537;SHT31;63013;51.104;-115.370;2023-07-13T02:41:09;21.04;52.43
74537;SHT31;63013;51.104;-115.370;2023-07-13T02:43:38;21.05;52.50
74537;SHT31;63013;51.104;-115.370;2023-07-13T02:46:06;21.05;52.57
74537;SHT31;63013;51.104;-115.370;2023-07-13T02:48:33;21.05;52.50
74537;SHT31;63013;51.104;-115.370;2023-07-13T02:51:02;21.06;52.82
74537;SHT31;63013;51.104;-115.370;2023-07-13T02:53:29;21.06;52.94
74537;SHT31;63013;51.104;-115.370;2023-07-13T02:55:57;21.08;53.01
74537;SHT31;63013;51.104;-115.370;2023-07-13T02:58:24;21.09;53.17
74537;SHT31;63013;51.104;-115.370;2023-07-13T03:00:51;21.08;53.21
74537;SHT31;63013;51.104;-115.370;2023-07-13T03:03:19;21.09;53.21
74537;SHT31;63013;51.104;-115.370;2023-07-13T03:05:46;21.09;53.20
74537;SHT31;63013;51.104;-115.370;2023-07-13T03:08:15;21.09;53.26
74537;SHT31;63013;51.104;-115.370;2023-07-13T03:10:43;21.08;53.25
74537;SHT31;63013;51.104;-115.370;2023-07-13T03:13:10;21.09;53.29
74537;SHT31;63013;51.104;-115.370;2023-07-13T03:15:37;21.08;53.24
74537;SHT31;63013;51.104;-115.370;2023-07-13T03:18:04;21.06;53.05
74537;SHT31;63013;51.104;-115.370;2023-07-13T03:20:34;21.07;53.09
74537;SHT31;63013;51.104;-115.370;2023-07-13T03:23:01;21.08;53.12
74537;SHT31;63013;51.104;-115.370;2023-07-13T03:25:29;21.08;53.06
74537;SHT31;63013;51.104;-115.370;2023-07-13T03:27:57;21.08;52.83
74537;SHT31;63013;51.104;-115.370;2023-07-13T03:30:24;21.09;52.81
74537;SHT31;63013;51.104;-115.370;2023-07-13T03:32:51;21.10;52.88
74537;SHT31;63013;51.104;-115.370;2023-07-13T03:35:18;21.10;52.87
74537;SHT31;63013;51.104;-115.370;2023-07-13T03:37:45;21.11;52.93
74537;SHT31;63013;51.104;-115.370;2023-07-13T03:40:12;21.13;53.56
74537;SHT31;63013;51.104;-115.370;2023-07-13T03:42:39;21.13;53.77
74537;SHT31;63013;51.104;-115.370;2023-07-13T03:45:07;21.12;53.82
74537;SHT31;63013;51.104;-115.370;2023-07-13T03:47:35;21.13;54.16
74537;SHT31;63013;51.104;-115.370;2023-07-13T03:50:02;21.13;54.41
74537;SHT31;63013;51.104;-115.370;2023-07-13T03:52:30;21.13;54.50
74537;SHT31;63013;51.104;-115.370;2023-07-13T03:54:57;21.13;54.69
74537;SHT31;63013;51.104;-115.370;2023-07-13T03:57:24;21.14;54.81
74537;SHT31;63013;51.104;-115.370;2023-07-13T03:59:51;21.13;54.96
74537;SHT31;63013;51.104;-115.370;2023-07-13T04:02:18;21.14;55.06
74537;SHT31;63013;51.104;-115.370;2023-07-13T04:04:46;21.13;55.19
74537;SHT31;63013;51.104;-115.370;2023-07-13T04:07:14;21.13;55.17
74537;SHT31;63013;51.104;-115.370;2023-07-13T04:09:41;21.12;55.16
74537;SHT31;63013;51.104;-115.370;2023-07-13T04:12:08;21.12;55.22
74537;SHT31;63013;51.104;-115.370;2023-07-13T04:14:35;21.12;55.32
74537;SHT31;63013;51.104;-115.370;2023-07-13T04:17:02;21.12;55.38
74537;SHT31;63013;51.104;-115.370;2023-07-13T04:19:30;21.12;55.30
74537;SHT31;63013;51.104;-115.370;2023-07-13T04:21:56;21.10;55.38
74537;SHT31;63013;51.104;-115.370;2023-07-13T04:24:23;21.11;55.38
74537;SHT31;63013;51.104;-115.370;2023-07-13T04:26:51;21.11;55.46
74537;SHT31;63013;51.104;-115.370;2023-07-13T04:29:18;21.11;55.42
74537;SHT31;63013;51.104;-115.370;2023-07-13T04:31:46;21.12;55.41
74537;SHT31;63013;51.104;-115.370;2023-07-13T04:34:13;21.11;55.41
74537;SHT31;63013;51.104;-115.370;2023-07-13T04:36:42;21.11;55.39
74537;SHT31;63013;51.104;-115.370;2023-07-13T04:39:09;21.11;55.31
74537;SHT31;63013;51.104;-115.370;2023-07-13T04:41:35;21.11;55.30
74537;SHT31;63013;51.104;-115.370;2023-07-13T04:44:03;21.11;55.26
74537;SHT31;63013;51.104;-115.370;2023-07-13T04:46:30;21.10;55.21
74537;SHT31;63013;51.104;-115.370;2023-07-13T04:48:57;21.11;55.19
74537;SHT31;63013;51.104;-115.370;2023-07-13T04:51:24;21.10;55.11
74537;SHT31;63013;51.104;-115.370;2023-07-13T04:53:51;21.10;55.10
74537;SHT31;63013;51.104;-115.370;2023-07-13T04:56:19;21.10;55.04
74537;SHT31;63013;51.104;-115.370;2023-07-13T04:58:46;21.10;55.01
74537;SHT31;63013;51.104;-115.370;2023-07-13T05:01:13;21.10;55.00
74537;SHT31;63013;51.104;-115.370;2023-07-13T05:03:40;21.09;55.00
74537;SHT31;63013;51.104;-115.370;2023-07-13T05:06:07;21.08;54.91
74537;SHT31;63013;51.104;-115.370;2023-07-13T05:08:39;21.09;54.90
74537;SHT31;63013;51.104;-115.370;2023-07-13T05:11:06;21.09;54.90
74537;SHT31;63013;51.104;-115.370;2023-07-13T05:13:33;21.08;54.84
74537;SHT31;63013;51.104;-115.370;2023-07-13T05:16:02;21.08;54.80
74537;SHT31;63013;51.104;-115.370;2023-07-13T05:18:33;21.08;54.79
74537;SHT31;63013;51.104;-115.370;2023-07-13T05:21:05;21.08;54.71
74537;SHT31;63013;51.104;-115.370;2023-07-13T05:23:35;21.07;54.70
74537;SHT31;63013;51.104;-115.370;2023-07-13T05:26:03;21.07;54.70
74537;SHT31;63013;51.104;-115.370;2023-07-13T05:28:31;21.06;54.65
74537;SHT31;63013;51.104;-115.370;2023-07-13T05:30:58;21.05;54.60
74537;SHT31;63013;51.104;-115.370;2023-07-13T05:33:26;21.05;54.60
74537;SHT31;63013;51.104;-115.370;2023-07-13T05:35:53;21.05;54.53
74537;SHT31;63013;51.104;-115.370;2023-07-13T05:38:21;21.04;54.50
74537;SHT31;63013;51.104;-115.370;2023-07-13T05:40:47;21.03;54.50
74537;SHT31;63013;51.104;-115.370;2023-07-13T05:43:16;21.03;54.50
74537;SHT31;63013;51.104;-115.370;2023-07-13T05:45:43;21.02;54.50
74537;SHT31;63013;51.104;-115.370;2023-07-13T05:48:10;21.02;54.43
74537;SHT31;63013;51.104;-115.370;2023-07-13T05:50:37;21.01;54.48
74537;SHT31;63013;51.104;-115.370;2023-07-13T05:53:04;21.00;54.42
74537;SHT31;63013;51.104;-115.370;2023-07-13T05:55:32;21.01;54.42
74537;SHT31;63013;51.104;-115.370;2023-07-13T05:57:59;21.00;54.39
74537;SHT31;63013;51.104;-115.370;2023-07-13T06:00:27;20.99;54.40
74537;SHT31;63013;51.104;-115.370;2023-07-13T06:02:55;20.98;54.38
74537;SHT31;63013;51.104;-115.370;2023-07-13T06:05:24;20.98;54.36
74537;SHT31;63013;51.104;-115.370;2023-07-13T06:07:52;20.98;54.32
74537;SHT31;63013;51.104;-115.370;2023-07-13T06:10:20;20.97;54.21
74537;SHT31;63013;51.104;-115.370;2023-07-13T06:12:47;20.98;54.21
74537;SHT31;63013;51.104;-115.370;2023-07-13T06:15:14;20.97;54.14
74537;SHT31;63013;51.104;-115.370;2023-07-13T06:17:41;20.95;54.14
74537;SHT31;63013;51.104;-115.370;2023-07-13T06:20:09;20.95;54.13
74537;SHT31;63013;51.104;-115.370;2023-07-13T06:22:36;20.94;53.97
74537;SHT31;63013;51.104;-115.370;2023-07-13T06:25:03;20.93;53.86
74537;SHT31;63013;51.104;-115.370;2023-07-13T06:27:31;20.92;53.82
74537;SHT31;63013;51.104;-115.370;2023-07-13T06:29:57;20.91;53.87
74537;SHT31;63013;51.104;-115.370;2023-07-13T06:32:24;20.91;53.84
74537;SHT31;63013;51.104;-115.370;2023-07-13T06:34:51;20.90;53.79
74537;SHT31;63013;51.104;-115.370;2023-07-13T06:37:19;20.89;53.83
74537;SHT31;63013;51.104;-115.370;2023-07-13T06:39:46;20.88;53.80
74537;SHT31;63013;51.104;-115.370;2023-07-13T06:42:13;20.88;53.78
74537;SHT31;63013;51.104;-115.370;2023-07-13T06:44:43;20.87;53.79
74537;SHT31;63013;51.104;-115.370;2023-07-13T06:47:10;20.86;53.82
74537;SHT31;63013;51.104;-115.370;2023-07-13T06:49:37;20.85;53.79
74537;SHT31;63013;51.104;-115.370;2023-07-13T06:52:04;20.85;53.74
74537;SHT31;63013;51.104;-115.370;2023-07-13T06:54:32;20.84;53.71
74537;SHT31;63013;51.104;-115.370;2023-07-13T06:57:00;20.84;53.73
74537;SHT31;63013;51.104;-115.370;2023-07-13T06:59:27;20.83;53.80
74537;SHT31;63013;51.104;-115.370;2023-07-13T07:01:54;20.82;53.68
74537;SHT31;63013;51.104;-115.370;2023-07-13T07:04:21;20.82;53.66
74537;SHT31;63013;51.104;-115.370;2023-07-13T07:06:48;20.81;53.64
74537;SHT31;63013;51.104;-115.370;2023-07-13T07:09:16;20.81;53.70
74537;SHT31;63013;51.104;-115.370;2023-07-13T07:11:43;20.79;53.66
74537;SHT31;63013;51.104;-115.370;2023-07-13T07:14:10;20.78;53.64
74537;SHT31;63013;51.104;-115.370;2023-07-13T07:16:37;20.78;53.63
74537;SHT31;63013;51.104;-115.370;2023-07-13T07:19:04;20.76;53.64
74537;SHT31;63013;51.104;-115.370;2023-07-13T07:21:31;20.77;53.60
74537;SHT31;63013;51.104;-115.370;2023-07-13T07:23:58;20.76;53.59
74537;SHT31;63013;51.104;-115.370;2023-07-13T07:26:25;20.76;53.60
74537;SHT31;63013;51.104;-115.370;2023-07-13T07:28:52;20.75;53.59
74537;SHT31;63013;51.104;-115.370;2023-07-13T07:31:20;20.74;53.60
74537;SHT31;63013;51.104;-115.370;2023-07-13T07:33:47;20.73;53.59
74537;SHT31;63013;51.104;-115.370;2023-07-13T07:36:15;20.73;53.55
74537;SHT31;63013;51.104;-115.370;2023-07-13T07:38:43;20.71;53.55
74537;SHT31;63013;51.104;-115.370;2023-07-13T07:41:10;20.70;53.52
74537;SHT31;63013;51.104;-115.370;2023-07-13T07:43:38;20.70;53.52
74537;SHT31;63013;51.104;-115.370;2023-07-13T07:46:05;20.69;53.50
74537;SHT31;63013;51.104;-115.370;2023-07-13T07:48:32;20.69;53.45
74537;SHT31;63013;51.104;-115.370;2023-07-13T07:50:59;20.69;53.44
74537;SHT31;63013;51.104;-115.370;2023-07-13T07:53:26;20.69;53.44
74537;SHT31;63013;51.104;-115.370;2023-07-13T07:55:54;20.68;53.41
74537;SHT31;63013;51.104;-115.370;2023-07-13T07:58:21;20.67;53.38
74537;SHT31;63013;51.104;-115.370;2023-07-13T08:00:48;20.67;53.33
74537;SHT31;63013;51.104;-115.370;2023-07-13T08:03:16;20.67;53.34
74537;SHT31;63013;51.104;-115.370;2023-07-13T08:05:42;20.65;53.35
74537;SHT31;63013;51.104;-115.370;2023-07-13T08:08:09;20.65;53.36
74537;SHT31;63013;51.104;-115.370;2023-07-13T08:10:36;20.65;53.39
74537;SHT31;63013;51.104;-115.370;2023-07-13T08:13:04;20.63;53.31
74537;SHT31;63013;51.104;-115.370;2023-07-13T08:15:31;20.64;53.30
74537;SHT31;63013;51.104;-115.370;2023-07-13T08:17:58;20.63;53.28
74537;SHT31;63013;51.104;-115.370;2023-07-13T08:20:25;20.62;53.20
74537;SHT31;63013;51.104;-115.370;2023-07-13T08:22:52;20.62;53.20
74537;SHT31;63013;51.104;-115.370;2023-07-13T08:25:19;20.62;53.17
74537;SHT31;63013;51.104;-115.370;2023-07-13T08:27:47;20.62;53.12
74537;SHT31;63013;51.104;-115.370;2023-07-13T08:30:14;20.61;53.09
74537;SHT31;63013;51.104;-115.370;2023-07-13T08:32:41;20.60;53.11
74537;SHT31;63013;51.104;-115.370;2023-07-13T08:35:08;20.60;53.11
74537;SHT31;63013;51.104;-115.370;2023-07-13T08:37:35;20.58;53.10
74537;SHT31;63013;51.104;-115.370;2023-07-13T08:40:02;20.58;53.05
74537;SHT31;63013;51.104;-115.370;2023-07-13T08:42:45;20.58;53.06
74537;SHT31;63013;51.104;-115.370;2023-07-13T08:53:50;20.56;52.89
74537;SHT31;63013;51.104;-115.370;2023-07-13T08:56:25;20.56;52.92
74537;SHT31;63013;51.104;-115.370;2023-07-13T08:59:15;20.56;52.88
74537;SHT31;63013;51.104;-115.370;2023-07-13T09:04:59;20.53;52.95
74537;SHT31;63013;51.104;-115.370;2023-07-13T09:13:27;20.52;52.96
74537;SHT31;63013;51.104;-115.370;2023-07-13T09:16:14;20.50;52.82
74537;SHT31;63013;51.104;-115.370;2023-07-13T09:18:42;20.50;52.81
74537;SHT31;63013;51.104;-115.370;2023-07-13T09:21:31;20.50;52.82
74537;SHT31;63013;51.104;-115.370;2023-07-13T09:27:30;20.48;52.91
74537;SHT31;63013;51.104;-115.370;2023-07-13T09:32:43;20.46;52.84
74537;SHT31;63013;51.104;-115.370;2023-07-13T09:35:23;20.45;52.86
74537;SHT31;63013;51.104;-115.370;2023-07-13T09:38:11;20.45;52.84
74537;SHT31;63013;51.104;-115.370;2023-07-13T09:44:12;20.43;52.89
74537;SHT31;63013;51.104;-115.370;2023-07-13T09:46:55;20.42;52.82
74537;SHT31;63013;51.104;-115.370;2023-07-13T09:49:43;20.42;52.77
74537;SHT31;63013;51.104;-115.370;2023-07-13T09:52:14;20.41;52.74
74537;SHT31;63013;51.104;-115.370;2023-07-13T09:54:46;20.41;52.71
74537;SHT31;63013;51.104;-115.370;2023-07-13T09:57:17;20.40;52.70
74537;SHT31;63013;51.104;-115.370;2023-07-13T09:59:50;20.40;52.61
74537;SHT31;63013;51.104;-115.370;2023-07-13T10:02:29;20.39;52.62
74537;SHT31;63013;51.104;-115.370;2023-07-13T10:05:02;20.39;52.61
74537;SHT31;63013;51.104;-115.370;2023-07-13T10:07:44;20.38;52.67
74537;SHT31;63013;51.104;-115.370;2023-07-13T10:10:14;20.36;52.74
74537;SHT31;63013;51.104;-115.370;2023-07-13T10:12:45;20.36;52.75
74537;SHT31;63013;51.104;-115.370;2023-07-13T10:15:18;20.35;52.71
74537;SHT31;63013;51.104;-115.370;2023-07-13T10:17:54;20.34;52.75
74537;SHT31;63013;51.104;-115.370;2023-07-13T10:20:24;20.33;52.72
74537;SHT31;63013;51.104;-115.370;2023-07-13T10:25:36;20.32;52.64
74537;SHT31;63013;51.104;-115.370;2023-07-13T10:30:58;20.30;52.61
74537;SHT31;63013;51.104;-115.370;2023-07-13T10:33:28;20.30;52.61
74537;SHT31;63013;51.104;-115.370;2023-07-13T10:36:05;20.30;52.63
74537;SHT31;63013;51.104;-115.370;2023-07-13T10:38:51;20.29;52.61
74537;SHT31;63013;51.104;-115.370;2023-07-13T10:41:22;20.28;52.63
74537;SHT31;63013;51.104;-115.370;2023-07-13T10:43:54;20.27;52.66
74537;SHT31;63013;51.104;-115.370;2023-07-13T10:46:25;20.27;52.57
74537;SHT31;63013;51.104;-115.370;2023-07-13T10:48:58;20.27;52.63
74537;SHT31;63013;51.104;-115.370;2023-07-13T10:51:31;20.26;52.63
74537;SHT31;63013;51.104;-115.370;2023-07-13T10:54:19;20.25;52.61
74537;SHT31;63013;51.104;-115.370;2023-07-13T10:59:47;20.24;52.56
74537;SHT31;63013;51.104;-115.370;2023-07-13T11:02:43;20.23;52.53
74537;SHT31;63013;51.104;-115.370;2023-07-13T11:05:32;20.23;52.54
74537;SHT31;63013;51.104;-115.370;2023-07-13T11:08:11;20.22;52.54
74537;SHT31;63013;51.104;-115.370;2023-07-13T11:24:50;20.19;52.37
74537;SHT31;63013;51.104;-115.370;2023-07-13T11:27:38;20.18;52.41
74537;SHT31;63013;51.104;-115.370;2023-07-13T11:33:30;20.16;52.33
74537;SHT31;63013;51.104;-115.370;2023-07-13T11:41:13;20.15;52.32
74537;SHT31;63013;51.104;-115.370;2023-07-13T11:43:54;20.15;52.33
74537;SHT31;63013;51.104;-115.370;2023-07-13T11:46:31;20.15;52.35
74537;SHT31;63013;51.104;-115.370;2023-07-13T11:48:58;20.14;52.30
74537;SHT31;63013;51.104;-115.370;2023-07-13T11:51:32;20.13;52.33
74537;SHT31;63013;51.104;-115.370;2023-07-13T11:54:04;20.13;52.39
74537;SHT31;63013;51.104;-115.370;2023-07-13T11:56:46;20.12;52.30
74537;SHT31;63013;51.104;-115.370;2023-07-13T11:59:15;20.12;52.30
74537;SHT31;63013;51.104;-115.370;2023-07-13T12:01:44;20.12;52.31
74537;SHT31;63013;51.104;-115.370;2023-07-13T12:04:22;20.10;52.27
74537;SHT31;63013;51.104;-115.370;2023-07-13T12:07:06;20.10;52.21
74537;SHT31;63013;51.104;-115.370;2023-07-13T12:09:42;20.09;52.26
74537;SHT31;63013;51.104;-115.370;2023-07-13T12:12:13;20.09;52.28
74537;SHT31;63013;51.104;-115.370;2023-07-13T12:14:44;20.08;52.27
74537;SHT31;63013;51.104;-115.370;2023-07-13T12:17:16;20.07;52.29
74537;SHT31;63013;51.104;-115.370;2023-07-13T12:19:50;20.07;52.25
74537;SHT31;63013;51.104;-115.370;2023-07-13T12:22:19;20.07;52.29
74537;SHT31;63013;51.104;-115.370;2023-07-13T12:24:48;20.06;52.32
74537;SHT31;63013;51.104;-115.370;2023-07-13T12:27:20;20.05;52.30
74537;SHT31;63013;51.104;-115.370;2023-07-13T12:29:53;20.05;52.31
74537;SHT31;63013;51.104;-115.370;2023-07-13T12:32:27;20.03;52.30
74537;SHT31;63013;51.104;-115.370;2023-07-13T12:35:13;20.03;52.32
74537;SHT31;63013;51.104;-115.370;2023-07-13T12:37:45;20.03;52.38
74537;SHT31;63013;51.104;-115.370;2023-07-13T12:40:14;20.02;52.35
74537;SHT31;63013;51.104;-115.370;2023-07-13T12:42:50;20.01;52.32
74537;SHT31;63013;51.104;-115.370;2023-07-13T12:45:19;20.01;52.39
74537;SHT31;63013;51.104;-115.370;2023-07-13T12:47:57;20.00;52.35
74537;SHT31;63013;51.104;-115.370;2023-07-13T12:50:49;20.00;52.25
74537;SHT31;63013;51.104;-115.370;2023-07-13T12:53:23;19.99;52.31
74537;SHT31;63013;51.104;-115.370;2023-07-13T12:56:01;19.99;52.31
74537;SHT31;63013;51.104;-115.370;2023-07-13T12:58:31;19.97;52.29
74537;SHT31;63013;51.104;-115.370;2023-07-13T13:01:06;19.97;52.22
74537;SHT31;63013;51.104;-115.370;2023-07-13T13:03:45;19.97;52.30
74537;SHT31;63013;51.104;-115.370;2023-07-13T13:08:50;19.96;52.20
74537;SHT31;63013;51.104;-115.370;2023-07-13T13:11:21;19.95;52.20
74537;SHT31;63013;51.104;-115.370;2023-07-13T13:13:51;19.94;52.17
74537;SHT31;63013;51.104;-115.370;2023-07-13T13:18:55;19.92;52.22
74537;SHT31;63013;51.104;-115.370;2023-07-13T13:21:25;19.92;52.27
74537;SHT31;63013;51.104;-115.370;2023-07-13T13:23:52;19.90;52.26
74537;SHT31;63013;51.104;-115.370;2023-07-13T13:26:21;19.89;52.64
74537;SHT31;63013;51.104;-115.370;2023-07-13T13:28:48;19.88;52.70
74537;SHT31;63013;51.104;-115.370;2023-07-13T13:31:15;19.88;52.61
74537;SHT31;63013;51.104;-115.370;2023-07-13T13:33:43;19.87;52.62
74537;SHT31;63013;51.104;-115.370;2023-07-13T13:36:20;19.86;52.66
74537;SHT31;63013;51.104;-115.370;2023-07-13T13:38:50;19.86;52.68
74537;SHT31;63013;51.104;-115.370;2023-07-13T13:41:18;19.86;52.66
74537;SHT31;63013;51.104;-115.370;2023-07-13T13:43:44;19.85;52.71
74537;SHT31;63013;51.104;-115.370;2023-07-13T13:46:16;19.84;52.69
74537;SHT31;63013;51.104;-115.370;2023-07-13T13:48:47;19.84;52.81
74537;SHT31;63013;51.104;-115.370;2023-07-13T13:53:47;19.82;52.83
74537;SHT31;63013;51.104;-115.370;2023-07-13T13:56:15;19.82;52.84
74537;SHT31;63013;51.104;-115.370;2023-07-13T13:58:45;19.81;52.87
74537;SHT31;63013;51.104;-115.370;2023-07-13T14:01:13;19.80;52.83
74537;SHT31;63013;51.104;-115.370;2023-07-13T14:03:45;19.80;52.88
74537;SHT31;63013;51.104;-115.370;2023-07-13T14:06:16;19.79;52.88
74537;SHT31;63013;51.104;-115.370;2023-07-13T14:08:44;19.79;52.78
74537;SHT31;63013;51.104;-115.370;2023-07-13T14:11:13;19.77;52.76
74537;SHT31;63013;51.104;-115.370;2023-07-13T14:13:47;19.76;52.74
74537;SHT31;63013;51.104;-115.370;2023-07-13T14:16:29;19.77;52.77
74537;SHT31;63013;51.104;-115.370;2023-07-13T14:18:59;19.75;52.74
74537;SHT31;63013;51.104;-115.370;2023-07-13T14:21:27;19.75;52.85
74537;SHT31;63013;51.104;-115.370;2023-07-13T14:23:55;19.75;52.94
74537;SHT31;63013;51.104;-115.370;2023-07-13T14:26:24;19.74;53.00
74537;SHT31;63013;51.104;-115.370;2023-07-13T14:28:54;19.73;53.05
74537;SHT31;63013;51.104;-115.370;2023-07-13T14:31:23;19.73;53.09
74537;SHT31;63013;51.104;-115.370;2023-07-13T14:33:54;19.73;53.11
74537;SHT31;63013;51.104;-115.370;2023-07-13T14:36:31;19.72;53.07
74537;SHT31;63013;51.104;-115.370;2023-07-13T14:39:14;19.71;53.05
74537;SHT31;63013;51.104;-115.370;2023-07-13T14:41:50;19.70;53.08
74537;SHT31;63013;51.104;-115.370;2023-07-13T14:44:29;19.69;53.07
74537;SHT31;63013;51.104;-115.370;2023-07-13T14:46:58;19.68;53.07
74537;SHT31;63013;51.104;-115.370;2023-07-13T14:52:18;19.68;53.05
74537;SHT31;63013;51.104;-115.370;2023-07-13T14:54:49;19.67;53.11
74537;SHT31;63013;51.104;-115.370;2023-07-13T14:57:18;19.67;53.01
74537;SHT31;63013;51.104;-115.370;2023-07-13T14:59:46;19.65;53.03
74537;SHT31;63013;51.104;-115.370;2023-07-13T15:02:15;19.66;53.00
74537;SHT31;63013;51.104;-115.370;2023-07-13T15:04:59;19.65;52.86
74537;SHT31;63013;51.104;-115.370;2023-07-13T15:07:29;19.66;52.99
74537;SHT31;63013;51.104;-115.370;2023-07-13T15:09:56;19.65;53.17
74537;SHT31;63013;51.104;-115.370;2023-07-13T15:12:23;19.65;53.12
74537;SHT31;63013;51.104;-115.370;2023-07-13T15:14:50;19.65;53.02
74537;SHT31;63013;51.104;-115.370;2023-07-13T15:17:36;19.64;53.00
74537;SHT31;63013;51.104;-115.370;2023-07-13T15:22:51;19.64;53.26
74537;SHT31;63013;51.104;-115.370;2023-07-13T15:25:19;19.63;53.03
74537;SHT31;63013;51.104;-115.370;2023-07-13T15:27:53;19.63;53.00
74537;SHT31;63013;51.104;-115.370;2023-07-13T15:30:21;19.63;52.95
74537;SHT31;63013;51.104;-115.370;2023-07-13T15:32:52;19.63;53.01
74537;SHT31;63013;51.104;-115.370;2023-07-13T15:35:24;19.62;53.09
74537;SHT31;63013;51.104;-115.370;2023-07-13T15:37:53;19.63;53.19
74537;SHT31;63013;51.104;-115.370;2023-07-13T15:40:20;19.61;53.22
74537;SHT31;63013;51.104;-115.370;2023-07-13T15:42:48;19.61;53.28
74537;SHT31;63013;51.104;-115.370;2023-07-13T15:45:18;19.61;53.31
74537;SHT31;63013;51.104;-115.370;2023-07-13T15:47:50;19.60;53.38
74537;SHT31;63013;51.104;-115.370;2023-07-13T15:50:18;19.60;53.40
74537;SHT31;63013;51.104;-115.370;2023-07-13T15:52:53;19.59;53.42
74537;SHT31;63013;51.104;-115.370;2023-07-13T15:55:24;19.59;53.45
74537;SHT31;63013;51.104;-115.370;2023-07-13T15:57:51;19.59;53.48
74537;SHT31;63013;51.104;-115.370;2023-07-13T16:00:21;19.59;53.53
74537;SHT31;63013;51.104;-115.370;2023-07-13T16:02:52;19.58;53.62
74537;SHT31;63013;51.104;-115.370;2023-07-13T16:05:20;19.59;53.85
74537;SHT31;63013;51.104;-115.370;2023-07-13T16:07:51;19.59;54.26
74537;SHT31;63013;51.104;-115.370;2023-07-13T16:10:27;19.62;54.47
74537;SHT31;63013;51.104;-115.370;2023-07-13T16:13:09;19.65;54.54
74537;SHT31;63013;51.104;-115.370;2023-07-13T16:15:42;19.66;54.55
74537;SHT31;63013;51.104;-115.370;2023-07-13T16:18:10;19.67;54.51
74537;SHT31;63013;51.104;-115.370;2023-07-13T16:20:38;19.67;54.51